Warda, TX (78960)

3:30 AM CDT on October 31, 2014 (GMT -0500)
Schramm Road | Change Station
CLOSE
Current Station
Personal Weather Station
Location: La Grange, TX
Elevation: 312 ft
Nearby Weather Stations

Elev 312 ft 30.01 °N, 96.91 °W | Updated 31 seconds ago

Overcast
Overcast
62.2 °F
Feels Like 62.2 °F
N
0.0
Wind Variable Wind from ENE
Gusts 0.0 mph

Today
High -- | Low -- °F
--% Chance of Precip.
Yesterday
High -- | Low -- °F
Precip. -- in
7:40 AM 6:41 PM
First Quarter, 53% visible
Pressure 30.17 in
Visibility 10.0 miles
Clouds Mostly Cloudy 6000 ft
Overcast 8000 ft
Dew Point 58 °F
Humidity 86%
Rainfall 0.00 in
Snow Depth Not available.
UV 0 out of 12
Pollen 5.10 out of 12
Air Quality Not available.
Flu Activity Not available.
METAR KGYB 310815Z AUTO 01003KT 10SM BKN060 OVC080 18/12 A3017 RMK AO2 T01830121

More Conditions Fewer Conditions

Pressure 30.17 in
Visibility 10.0 miles
Clouds Mostly Cloudy 6000 ft
Overcast 8000 ft
Dew Point 58 °F
Humidity 86%
Rainfall 0.00 in
Snow Depth Not available.
UV 0 out of 12
Pollen 5.10 out of 12
Air Quality Not available.
Flu Activity Not available.
METAR KGYB 310815Z AUTO 01003KT 10SM BKN060 OVC080 18/12 A3017 RMK AO2 T01830121

More Conditions Fewer Conditions

Nowcast | as of 3:06 am CDT on October 31, 2014

Through 4 am...scattered showers and isolated thunderstorms will move south at 20 mph across The Hill Country and south central Texas. The heaviest storms and greatest areal coverage will be from Floresville and Stockdale to across the San Antonio area to Fredericksburg...Mountain Home and Hondo areas. Rainfall amounts will average one half inch or less with isolated amounts up to 2 inches.

×

10-Day Weather Forecast

Almanac

Astronomy

Oct. 31, 2014 Rise Set
Actual Time
Civil Twilight
Nautical Twilight
Astronomical Twilight
Moon
Length of Visible Light
Length of Day
Tomorrow will be .
, % of the Moon is Illuminated

Today's Extremes

State Highs State Lows

Community

WunderPhotos

Upload Photos

1,766,573 photos uploaded!

WunderBlogs® & News

Nearby

Air Quality

  Air Quality AQ Index Pollutant
Not available.

Snow Depth

Station Depth Elevation

Earthquake Activity

City Distance Mag. Time & Date
Minimum magnitude displayed is 2.5.

Coastal Water Temperatures

Place Temperature

Nearby Weather Stations